Time;durP1;ratioP1;P1;durP2;ratioP2;P2;SDS_P1;SDS_P2;PMS_P1;PMS_P2;Temp;Humidity;BMP_temperature;BMP_pressure;BME280_temperature;BME280_humidity;BME280_pressure;Samples;Min_cycle;Max_cycle;Signal;HPM_P1;HPM_P2
2022/08/24 00:00:57;;;;;;;7.22;4.18;;;22.20;99.90;;;;;;5045836;28;20238;-61
2022/08/24 00:03:23;;;;;;;5.70;3.70;;;22.20;99.90;;;;;;5023542;28;20644;-60
2022/08/24 00:05:49;;;;;;;3.15;2.70;;;22.10;99.90;;;;;;5022498;28;20183;-60
2022/08/24 00:08:17;;;;;;;3.88;3.42;;;22.20;99.90;;;;;;5013809;28;20246;-61
2022/08/24 00:10:44;;;;;;;4.00;2.58;;;22.10;99.90;;;;;;5017629;28;20197;-61
2022/08/24 00:13:09;;;;;;;3.67;3.28;;;22.10;99.90;;;;;;5013477;28;20694;-61
2022/08/24 00:15:35;;;;;;;2.75;2.50;;;22.10;99.90;;;;;;5022538;28;20186;-61
2022/08/24 00:18:01;;;;;;;2.95;2.75;;;22.00;99.90;;;;;;5015569;28;20226;-61
2022/08/24 00:20:27;;;;;;;3.80;2.67;;;22.00;99.90;;;;;;5019321;28;20217;-61
2022/08/24 00:22:53;;;;;;;2.95;2.65;;;21.90;99.90;;;;;;5026849;28;20191;-61
2022/08/24 00:25:19;;;;;;;3.33;3.03;;;21.90;99.90;;;;;;5011511;28;20194;-61
2022/08/24 00:27:46;;;;;;;5.25;3.10;;;21.90;99.90;;;;;;5013071;28;20194;-61
2022/08/24 00:30:14;;;;;;;5.82;3.17;;;21.90;99.90;;;;;;5012072;28;20241;-62
2022/08/24 00:32:42;;;;;;;3.25;2.95;;;22.00;99.90;;;;;;5022778;28;20268;-61
2022/08/24 00:35:09;;;;;;;3.30;2.67;;;21.90;99.90;;;;;;5045415;28;20187;-61
2022/08/24 00:37:35;;;;;;;4.40;3.28;;;21.90;99.90;;;;;;5013110;28;20187;-61
2022/08/24 00:40:06;;;;;;;3.42;2.50;;;21.90;99.90;;;;;;5056565;28;20221;-61
2022/08/24 00:42:31;;;;;;;8.85;2.95;;;21.90;99.90;;;;;;5020873;28;20592;-62
2022/08/24 00:44:58;;;;;;;3.22;2.78;;;21.80;99.90;;;;;;5025439;28;20183;-60
2022/08/24 00:47:32;;;;;;;5.30;3.90;;;21.80;99.90;;;;;;5014718;28;20183;-61
2022/08/24 00:50:03;;;;;;;3.40;3.00;;;21.80;99.90;;;;;;5028788;28;20183;-61
2022/08/24 00:52:34;;;;;;;3.53;3.17;;;21.80;99.90;;;;;;5033180;28;20175;-61
2022/08/24 00:55:31;;;;;;;3.65;2.83;;;21.80;99.90;;;;;;5016516;28;20198;-61
2022/08/24 00:58:00;;;;;;;5.28;3.17;;;21.80;99.90;;;;;;5017083;28;20179;-61
2022/08/24 01:00:30;;;;;;;4.75;3.22;;;21.70;99.90;;;;;;5027736;28;20622;-61
2022/08/24 01:03:03;;;;;;;6.63;4.38;;;21.70;99.90;;;;;;5017548;28;20198;-61
2022/08/24 01:05:31;;;;;;;4.45;3.20;;;21.70;99.90;;;;;;5022745;28;20183;-61
2022/08/24 01:07:57;;;;;;;3.97;3.50;;;21.70;99.90;;;;;;5015992;28;20252;-61
2022/08/24 01:10:26;;;;;;;3.58;3.28;;;21.70;99.90;;;;;;5017926;28;20195;-61
2022/08/24 01:12:56;;;;;;;6.30;3.53;;;21.70;99.90;;;;;;5016091;28;20188;-61
2022/08/24 01:15:22;;;;;;;4.32;3.10;;;21.70;99.90;;;;;;5020170;28;20184;-61
2022/08/24 01:20:34;;;;;;;3.28;2.97;;;21.70;99.90;;;;;;5035665;28;20606;-61
2022/08/24 01:23:27;;;;;;;3.42;2.85;;;21.70;99.90;;;;;;5016680;28;20191;-61
2022/08/24 01:25:53;;;;;;;3.05;2.80;;;21.70;99.90;;;;;;5016162;28;20249;-63
2022/08/24 01:28:20;;;;;;;4.80;4.05;;;21.60;99.90;;;;;;5020363;28;20651;-61
2022/08/24 01:30:46;;;;;;;3.70;2.95;;;21.60;99.90;;;;;;5034639;28;20588;-61
2022/08/24 01:33:23;;;;;;;6.07;3.30;;;21.60;99.90;;;;;;5016433;28;20198;-61
2022/08/24 01:35:49;;;;;;;6.15;2.75;;;21.60;99.90;;;;;;5028561;28;20202;-61
2022/08/24 01:38:16;;;;;;;4.22;3.22;;;21.60;99.90;;;;;;5017186;28;20621;-61
2022/08/24 01:40:49;;;;;;;5.18;3.95;;;21.50;99.90;;;;;;5024042;28;20226;-60
2022/08/24 01:43:16;;;;;;;5.53;3.47;;;21.50;99.90;;;;;;5027567;28;20182;-61
2022/08/24 01:45:42;;;;;;;6.25;3.28;;;21.40;99.90;;;;;;5027817;28;20349;-61
2022/08/24 01:48:08;;;;;;;5.78;3.25;;;21.40;99.90;;;;;;5026728;28;20190;-61
2022/08/24 01:50:34;;;;;;;4.43;3.28;;;21.50;99.90;;;;;;5017175;28;20191;-61
2022/08/24 01:53:02;;;;;;;6.22;3.88;;;21.40;99.90;;;;;;5028602;28;20191;-61
2022/08/24 01:55:28;;;;;;;3.90;3.53;;;21.40;99.90;;;;;;5016237;28;20302;-61
2022/08/24 01:57:54;;;;;;;3.83;3.22;;;21.40;99.90;;;;;;5052671;28;20576;-61
2022/08/24 02:00:20;;;;;;;4.07;3.30;;;21.30;99.90;;;;;;5027726;28;20556;-60
2022/08/24 02:02:46;;;;;;;3.72;3.08;;;21.30;99.90;;;;;;5057521;28;20261;-60
2022/08/24 02:05:14;;;;;;;7.80;3.63;;;21.30;99.90;;;;;;5025492;28;20265;-59
2022/08/24 02:07:40;;;;;;;6.97;4.60;;;21.30;99.90;;;;;;5029294;28;20615;-59
2022/08/24 02:10:08;;;;;;;4.63;3.90;;;21.30;99.90;;;;;;5021937;28;20253;-60
2022/08/24 02:12:36;;;;;;;4.35;3.67;;;21.30;99.90;;;;;;5028158;28;20652;-59
2022/08/24 02:15:04;;;;;;;4.20;3.30;;;21.30;99.90;;;;;;5029519;28;20284;-59
2022/08/24 02:17:29;;;;;;;5.72;4.28;;;21.30;99.90;;;;;;5030994;28;20199;-59
2022/08/24 02:19:55;;;;;;;4.05;3.65;;;21.30;99.90;;;;;;5022460;28;20329;-59
2022/08/24 02:22:21;;;;;;;5.25;3.35;;;21.20;99.90;;;;;;5017160;28;20608;-60
2022/08/24 02:24:46;;;;;;;4.35;3.47;;;21.20;99.90;;;;;;5018285;28;22045;-59
2022/08/24 02:27:13;;;;;;;4.25;3.10;;;21.20;99.90;;;;;;5028831;28;20219;-59
2022/08/24 02:29:39;;;;;;;3.78;3.42;;;21.20;99.90;;;;;;5030344;28;20607;-59
2022/08/24 02:32:06;;;;;;;4.68;3.45;;;21.10;99.90;;;;;;5026049;28;20203;-60
2022/08/24 02:34:31;;;;;;;3.50;3.15;;;21.10;99.90;;;;;;5046660;28;20179;-60
2022/08/24 02:36:57;;;;;;;3.80;3.45;;;21.10;99.90;;;;;;5034184;28;20179;-60
2022/08/24 02:39:22;;;;;;;3.83;3.53;;;21.10;99.90;;;;;;5019165;28;20184;-60
2022/08/24 02:41:49;;;;;;;4.95;2.55;;;21.10;99.90;;;;;;5019178;28;20226;-60
2022/08/24 02:44:15;;;;;;;3.58;2.95;;;21.10;99.90;;;;;;5030266;28;20187;-60
2022/08/24 02:46:41;;;;;;;5.60;2.80;;;21.00;99.90;;;;;;5029346;28;20185;-60
2022/08/24 02:49:07;;;;;;;4.28;3.45;;;21.00;99.90;;;;;;5023542;28;20171;-59
2022/08/24 02:51:33;;;;;;;3.58;3.28;;;21.00;99.90;;;;;;5032107;28;20524;-60
2022/08/24 02:54:01;;;;;;;5.70;2.88;;;20.90;99.90;;;;;;5032879;28;20534;-60
2022/08/24 02:56:29;;;;;;;2.42;2.22;;;20.90;99.90;;;;;;5024116;28;20216;-59
2022/08/24 02:58:59;;;;;;;5.45;3.13;;;20.90;99.90;;;;;;5023140;28;20178;-61
2022/08/24 03:01:26;;;;;;;3.28;2.78;;;20.90;99.90;;;;;;5023356;28;20579;-60
2022/08/24 03:03:52;;;;;;;4.10;3.45;;;20.90;99.90;;;;;;5015746;28;20274;-59
2022/08/24 03:06:18;;;;;;;3.80;3.50;;;20.90;99.90;;;;;;5014407;28;20679;-59
2022/08/24 03:08:45;;;;;;;4.53;3.10;;;20.80;99.90;;;;;;5028582;28;20210;-58
2022/08/24 03:11:11;;;;;;;3.70;2.97;;;20.80;99.90;;;;;;5019192;28;20188;-59
2022/08/24 03:13:37;;;;;;;4.57;3.67;;;20.80;99.90;;;;;;5016726;28;20656;-59
2022/08/24 03:16:04;;;;;;;4.18;3.20;;;20.70;99.90;;;;;;5021949;28;20187;-59
2022/08/24 03:18:30;;;;;;;5.50;2.92;;;20.70;99.90;;;;;;5018673;28;20230;-59
2022/08/24 03:20:58;;;;;;;3.88;3.22;;;20.70;99.90;;;;;;5030486;28;20203;-60
2022/08/24 03:23:25;;;;;;;3.75;3.00;;;20.70;99.90;;;;;;5028090;28;20171;-60
2022/08/24 03:25:51;;;;;;;3.10;2.80;;;20.60;99.90;;;;;;5018802;28;20258;-59
2022/08/24 03:28:18;;;;;;;15.80;2.90;;;20.70;99.90;;;;;;5030442;28;20225;-59
2022/08/24 03:30:44;;;;;;;2.92;2.63;;;20.60;99.90;;;;;;5017012;28;20180;-60
2022/08/24 03:33:10;;;;;;;4.65;2.70;;;20.60;99.90;;;;;;5017885;28;20178;-59
2022/08/24 03:35:36;;;;;;;4.07;3.40;;;20.70;99.90;;;;;;5015869;28;20195;-60
2022/08/24 03:38:03;;;;;;;4.03;3.50;;;20.60;99.90;;;;;;5014909;28;20757;-59
2022/08/24 03:40:32;;;;;;;3.88;2.97;;;20.60;99.90;;;;;;5027699;28;20214;-60
2022/08/24 03:42:58;;;;;;;4.10;3.13;;;20.60;99.90;;;;;;5018690;28;20187;-59
2022/08/24 03:45:24;;;;;;;3.92;2.90;;;20.50;99.90;;;;;;5020215;28;20207;-60
2022/08/24 03:47:52;;;;;;;5.68;3.67;;;20.50;99.90;;;;;;5022740;28;20318;-59
2022/08/24 03:50:19;;;;;;;6.20;4.07;;;20.60;99.90;;;;;;5024203;28;20179;-60
2022/08/24 03:52:44;;;;;;;6.43;3.35;;;20.60;99.90;;;;;;5024363;28;20192;-59
2022/08/24 03:55:10;;;;;;;5.97;3.35;;;20.60;99.90;;;;;;5028276;28;20179;-59
2022/08/24 03:57:36;;;;;;;6.30;3.40;;;20.50;99.90;;;;;;5012990;28;20659;-59
2022/08/24 04:00:05;;;;;;;10.18;3.53;;;20.50;99.90;;;;;;5016565;28;20219;-59
2022/08/24 04:02:30;;;;;;;11.57;3.92;;;20.50;99.90;;;;;;5017956;28;20260;-59
2022/08/24 04:04:56;;;;;;;11.02;4.18;;;20.40;99.90;;;;;;5016176;28;20214;-59
2022/08/24 04:07:22;;;;;;;7.35;4.97;;;20.40;99.90;;;;;;5028870;28;20207;-60
2022/08/24 04:09:48;;;;;;;16.52;6.38;;;20.40;99.90;;;;;;5055073;28;20196;-60
2022/08/24 04:12:14;;;;;;;11.05;5.18;;;20.40;99.90;;;;;;5012104;28;20186;-59
2022/08/24 04:14:40;;;;;;;5.47;4.28;;;20.30;99.90;;;;;;5013790;28;20183;-59
2022/08/24 04:17:05;;;;;;;12.32;5.30;;;20.40;99.90;;;;;;5019795;28;20188;-59
2022/08/24 04:19:33;;;;;;;13.07;5.88;;;20.30;99.90;;;;;;5011571;28;20183;-60
2022/08/24 04:21:59;;;;;;;6.40;4.97;;;20.30;99.90;;;;;;5015383;28;20741;-60
2022/08/24 04:24:25;;;;;;;7.50;5.13;;;20.30;99.90;;;;;;5011396;28;20246;-60
2022/08/24 04:26:51;;;;;;;6.57;4.70;;;20.30;99.90;;;;;;5027034;28;20245;-59
2022/08/24 04:29:19;;;;;;;11.35;5.75;;;20.20;99.90;;;;;;5024899;28;20601;-60
2022/08/24 04:31:45;;;;;;;13.27;6.82;;;20.20;99.90;;;;;;5016603;28;20187;-60
2022/08/24 04:34:13;;;;;;;7.72;5.05;;;20.20;99.90;;;;;;5020501;28;20648;-59
2022/08/24 04:36:43;;;;;;;11.07;4.63;;;20.20;99.90;;;;;;5027260;28;20533;-60
2022/08/24 04:39:09;;;;;;;19.65;4.63;;;20.10;99.90;;;;;;5038589;28;20183;-59
2022/08/24 04:41:35;;;;;;;11.65;4.82;;;20.10;99.90;;;;;;5027549;28;20207;-60
2022/08/24 04:44:01;;;;;;;8.93;4.60;;;20.10;99.90;;;;;;5031476;28;20183;-60
2022/08/24 04:46:28;;;;;;;10.88;4.88;;;20.10;99.90;;;;;;5014537;28;20550;-60
2022/08/24 04:48:54;;;;;;;9.45;3.92;;;20.10;99.90;;;;;;5013013;28;20177;-60
2022/08/24 04:51:20;;;;;;;8.43;4.95;;;20.10;99.90;;;;;;5058071;28;20189;-60
2022/08/24 04:53:47;;;;;;;9.43;4.25;;;20.10;99.90;;;;;;5022488;28;20183;-60
2022/08/24 04:56:16;;;;;;;13.70;4.28;;;20.10;99.90;;;;;;5026983;28;20236;-60
2022/08/24 04:58:43;;;;;;;7.10;3.88;;;20.10;99.90;;;;;;5019872;28;20190;-60
2022/08/24 05:01:14;;;;;;;9.73;4.75;;;20.10;99.90;;;;;;5017982;28;20220;-60
2022/08/24 05:03:40;;;;;;;7.47;3.72;;;20.20;99.90;;;;;;5013418;28;20176;-60
2022/08/24 05:06:05;;;;;;;9.60;4.32;;;20.20;99.90;;;;;;5016143;28;20187;-60
2022/08/24 05:08:32;;;;;;;6.80;3.17;;;20.20;99.90;;;;;;5014582;28;20272;-60
2022/08/24 05:10:58;;;;;;;6.10;3.17;;;20.10;99.90;;;;;;5016484;28;20278;-60
2022/08/24 05:13:24;;;;;;;6.20;2.97;;;20.20;99.90;;;;;;5029579;28;20183;-60
2022/08/24 05:15:49;;;;;;;7.88;3.80;;;20.30;99.90;;;;;;5020189;28;20551;-60
2022/08/24 05:18:16;;;;;;;5.88;4.40;;;20.40;99.90;;;;;;5022358;28;20202;-60
2022/08/24 05:20:44;;;;;;;5.28;4.10;;;20.40;99.90;;;;;;5022678;28;20640;-60
2022/08/24 05:23:10;;;;;;;4.70;4.22;;;20.40;99.90;;;;;;5021745;28;20186;-60
2022/08/24 05:25:38;;;;;;;5.00;4.25;;;20.40;99.90;;;;;;5012843;28;20192;-61
2022/08/24 05:28:04;;;;;;;4.57;4.22;;;20.40;99.90;;;;;;5017230;28;20182;-60
2022/08/24 05:30:30;;;;;;;6.47;3.38;;;20.40;99.90;;;;;;5019956;28;20624;-60
2022/08/24 05:32:55;;;;;;;6.22;3.90;;;20.50;99.90;;;;;;5014275;28;20190;-60
2022/08/24 05:35:21;;;;;;;5.13;3.47;;;20.50;99.90;;;;;;5024352;28;20179;-60
2022/08/24 05:37:47;;;;;;;7.65;4.30;;;20.50;99.90;;;;;;5016471;28;20214;-60
2022/08/24 05:40:15;;;;;;;4.60;3.85;;;20.60;99.90;;;;;;5031081;28;20302;-60
2022/08/24 05:42:41;;;;;;;6.38;4.85;;;20.60;99.90;;;;;;5032570;28;20261;-60
2022/08/24 05:45:07;;;;;;;8.60;4.28;;;20.70;99.90;;;;;;5030526;28;20286;-59
2022/08/24 05:47:33;;;;;;;5.90;4.25;;;20.80;99.90;;;;;;5025101;28;20186;-60
2022/08/24 05:50:00;;;;;;;5.30;3.88;;;20.80;99.90;;;;;;5033403;28;20194;-66
2022/08/24 05:52:26;;;;;;;19.30;5.30;;;20.90;99.90;;;;;;5028391;28;20181;-66
2022/08/24 05:54:54;;;;;;;9.75;4.88;;;21.00;99.90;;;;;;5027430;28;20197;-64
2022/08/24 05:57:20;;;;;;;16.25;4.47;;;21.10;99.90;;;;;;5020522;28;20258;-66
2022/08/24 05:59:46;;;;;;;7.60;4.70;;;21.20;99.90;;;;;;5024753;28;20282;-65
2022/08/24 06:02:12;;;;;;;8.48;5.18;;;21.30;99.90;;;;;;5019581;28;20171;-73
2022/08/24 06:04:38;;;;;;;7.20;5.47;;;21.50;99.90;;;;;;5029419;28;20267;-66
2022/08/24 06:07:04;;;;;;;5.13;3.83;;;21.60;99.90;;;;;;5024201;28;20617;-69
2022/08/24 06:09:30;;;;;;;16.25;7.15;;;21.60;99.90;;;;;;5016000;28;20631;-67
2022/08/24 06:11:56;;;;;;;6.88;4.85;;;21.70;99.90;;;;;;5022540;28;20237;-67
2022/08/24 06:14:21;;;;;;;9.85;6.20;;;21.90;99.90;;;;;;5013988;28;20187;-68
2022/08/24 06:16:47;;;;;;;7.72;5.60;;;22.00;99.90;;;;;;5027228;28;20655;-61
2022/08/24 06:19:15;;;;;;;12.93;6.18;;;22.10;99.90;;;;;;5016557;28;20180;-62
2022/08/24 06:21:42;;;;;;;9.48;6.80;;;22.30;99.90;;;;;;5031169;28;20305;-62
2022/08/24 06:24:08;;;;;;;15.07;9.77;;;22.30;99.90;;;;;;5031854;28;20258;-60
2022/08/24 06:29:19;;;;;;;11.25;7.63;;;22.80;99.90;;;;;;5025109;28;20265;-63
2022/08/24 06:31:47;;;;;;;15.10;9.73;;;22.90;99.90;;;;;;5027468;28;20195;-62
2022/08/24 06:34:15;;;;;;;18.58;11.30;;;22.90;99.90;;;;;;5016461;28;20192;-62
2022/08/24 06:36:41;;;;;;;17.10;10.65;;;23.00;99.90;;;;;;5023014;28;20187;-62
2022/08/24 06:39:08;;;;;;;27.38;13.38;;;23.20;99.90;;;;;;5022039;28;20240;-62
2022/08/24 06:41:35;;;;;;;19.33;12.27;;;23.20;99.90;;;;;;5018431;28;20668;-62
2022/08/24 06:44:01;;;;;;;21.73;11.50;;;23.10;99.90;;;;;;5025252;28;20656;-61
2022/08/24 06:46:27;;;;;;;14.18;10.65;;;23.40;99.90;;;;;;5025082;28;20175;-62
2022/08/24 06:48:53;;;;;;;23.00;14.07;;;23.30;99.90;;;;;;5029059;28;20759;-62
2022/08/24 06:51:21;;;;;;;24.83;14.45;;;23.30;99.90;;;;;;5020584;28;20186;-61
2022/08/24 06:53:47;;;;;;;33.95;15.23;;;23.60;99.90;;;;;;5031943;28;20283;-61
2022/08/24 06:56:13;;;;;;;25.55;13.23;;;23.50;99.90;;;;;;5032339;28;20206;-62
2022/08/24 06:58:39;;;;;;;23.92;14.18;;;23.40;99.90;;;;;;5020410;28;20218;-64
2022/08/24 07:01:20;;;;;;;25.27;15.02;;;23.30;99.90;;;;;;5014647;28;20215;-61
2022/08/24 07:03:46;;;;;;;25.73;15.82;;;23.60;99.90;;;;;;5017420;28;20184;-61
2022/08/24 07:06:13;;;;;;;29.42;16.85;;;23.50;99.90;;;;;;5022876;28;20225;-61
2022/08/24 07:08:41;;;;;;;22.45;14.05;;;23.60;99.90;;;;;;5066057;28;20586;-62
2022/08/24 07:11:08;;;;;;;21.15;15.23;;;23.60;99.90;;;;;;5028928;28;20191;-61
2022/08/24 07:13:34;;;;;;;22.77;15.48;;;23.70;99.90;;;;;;5015740;28;20187;-62
2022/08/24 07:16:00;;;;;;;20.92;12.70;;;23.80;99.90;;;;;;5022713;28;20193;-61
2022/08/24 07:18:26;;;;;;;21.55;14.55;;;24.20;99.90;;;;;;5030597;28;20179;-61
2022/08/24 07:20:52;;;;;;;22.65;15.93;;;24.20;99.90;;;;;;5038577;28;21565;-61
2022/08/24 07:23:18;;;;;;;26.65;16.85;;;23.90;99.90;;;;;;5006429;28;20631;-61
2022/08/24 07:25:45;;;;;;;19.15;12.48;;;24.00;99.90;;;;;;5020766;28;20183;-62
2022/08/24 07:28:11;;;;;;;22.63;14.77;;;24.30;99.90;;;;;;5004502;28;20184;-61
2022/08/24 07:30:38;;;;;;;24.17;14.73;;;24.50;99.90;;;;;;5018303;28;20214;-61
2022/08/24 07:33:04;;;;;;;22.38;15.57;;;24.70;99.90;;;;;;5018525;28;20174;-61
2022/08/24 07:35:31;;;;;;;23.63;14.48;;;24.50;99.90;;;;;;5028659;28;20542;-61
2022/08/24 07:37:58;;;;;;;17.20;12.52;;;24.50;99.90;;;;;;5016495;28;20209;-61
2022/08/24 07:40:25;;;;;;;20.13;12.70;;;25.10;99.90;;;;;;5045936;28;20221;-61
2022/08/24 07:42:52;;;;;;;25.90;14.18;;;26.20;99.90;;;;;;5020816;28;20187;-61
2022/08/24 07:45:19;;;;;;;20.23;13.88;;;26.60;99.90;;;;;;5023363;28;20190;-61
2022/08/24 07:47:44;;;;;;;20.08;13.77;;;26.80;99.90;;;;;;5021452;28;20187;-62
2022/08/24 07:50:12;;;;;;;17.20;10.88;;;27.00;99.90;;;;;;5053731;28;20182;-61
2022/08/24 07:52:38;;;;;;;15.20;11.10;;;28.10;99.90;;;;;;5029248;28;20636;-61
2022/08/24 07:55:04;;;;;;;12.07;10.00;;;28.30;99.90;;;;;;5031121;28;20176;-61
2022/08/24 07:57:30;;;;;;;16.83;11.55;;;29.10;99.90;;;;;;5044975;28;20193;-62
2022/08/24 07:59:58;;;;;;;16.50;10.80;;;30.40;99.90;;;;;;5024194;28;20264;-61
2022/08/24 08:02:25;;;;;;;11.70;8.23;;;31.50;99.90;;;;;;5030935;28;20175;-61
2022/08/24 08:04:53;;;;;;;16.17;9.48;;;32.90;99.90;;;;;;5028955;28;20186;-62
2022/08/24 08:07:18;;;;;;;15.00;9.00;;;34.10;99.90;;;;;;5012451;28;20202;-62
2022/08/24 08:09:45;;;;;;;13.98;8.05;;;34.80;99.90;;;;;;5021675;28;20183;-63
2022/08/24 08:12:11;;;;;;;11.90;6.35;;;34.70;99.90;;;;;;4999245;28;20205;-62
2022/08/24 08:14:37;;;;;;;9.05;5.53;;;34.10;99.90;;;;;;5037137;28;20186;-62
2022/08/24 08:17:03;;;;;;;8.07;7.18;;;32.50;99.90;;;;;;5012826;28;20181;-62
2022/08/24 08:19:29;;;;;;;10.13;6.13;;;31.10;99.90;;;;;;5016516;28;20182;-61
2022/08/24 08:24:42;;;;;;;6.93;4.90;;;28.90;99.90;;;;;;5040595;28;20671;-62
2022/08/24 08:27:09;;;;;;;10.02;6.25;;;28.60;99.90;;;;;;5014045;28;20182;-61
2022/08/24 08:29:38;;;;;;;8.27;6.15;;;28.50;99.90;;;;;;5044261;28;20663;-62
2022/08/24 08:32:04;;;;;;;8.43;5.82;;;28.30;99.90;;;;;;5013240;28;20194;-63
2022/08/24 08:34:30;;;;;;;9.80;5.20;;;28.20;99.90;;;;;;5021170;28;20179;-61
2022/08/24 08:36:56;;;;;;;9.98;6.82;;;28.20;99.90;;;;;;5027545;28;20547;-61
2022/08/24 08:39:22;;;;;;;7.82;6.32;;;28.20;99.90;;;;;;5027714;28;20174;-62
2022/08/24 08:42:04;;;;;;;6.47;5.32;;;28.10;99.90;;;;;;5027623;28;20214;-61
2022/08/24 08:44:43;;;;;;;6.57;5.47;;;28.00;99.90;;;;;;5025154;28;20240;-62
2022/08/24 08:47:34;;;;;;;5.03;4.35;;;28.20;99.90;;;;;;5030703;28;20173;-61
2022/08/24 08:50:11;;;;;;;6.40;5.18;;;28.80;99.90;;;;;;5023680;28;20181;-60
2022/08/24 08:53:12;;;;;;;9.05;4.80;;;29.80;99.90;;;;;;5023624;28;20186;-62
2022/08/24 08:55:51;;;;;;;6.88;4.50;;;29.60;99.90;;;;;;5027435;28;20170;-60
2022/08/24 08:58:38;;;;;;;5.35;4.38;;;29.80;99.90;;;;;;5021008;28;20528;-61
2022/08/24 09:01:30;;;;;;;11.85;6.15;;;30.20;99.90;;;;;;5026301;28;20307;-61
2022/08/24 09:04:44;;;;;;;7.70;5.63;;;30.30;99.90;;;;;;5021372;28;20178;-60
2022/08/24 09:07:37;;;;;;;11.70;6.07;;;30.10;99.90;;;;;;5020181;28;20251;-61
2022/08/24 09:10:31;;;;;;;7.05;5.30;;;29.60;99.90;;;;;;5020353;28;20702;-59
2022/08/24 09:13:26;;;;;;;9.65;5.07;;;29.70;99.90;;;;;;5017150;28;20249;-61
2022/08/24 09:15:59;;;;;;;14.60;4.57;;;29.50;99.90;;;;;;5015265;28;20635;-60
2022/08/24 09:18:42;;;;;;;8.38;4.63;;;29.50;99.90;;;;;;5018795;28;20190;-60
2022/08/24 09:21:10;;;;;;;5.38;4.88;;;28.80;99.90;;;;;;5024710;28;20261;-62
2022/08/24 09:23:39;;;;;;;4.78;4.28;;;28.70;99.90;;;;;;5015971;28;20207;-61
2022/08/24 09:26:12;;;;;;;5.88;5.32;;;28.20;99.90;;;;;;5025524;28;20245;-62
2022/08/24 09:29:18;;;;;;;7.03;5.78;;;28.20;99.90;;;;;;5019483;28;20193;-61
2022/08/24 09:32:14;;;;;;;6.38;5.78;;;28.20;99.90;;;;;;5021919;28;20189;-62
2022/08/24 09:34:50;;;;;;;10.57;6.57;;;27.80;99.90;;;;;;5023446;28;20182;-61
2022/08/24 09:37:48;;;;;;;9.65;6.13;;;28.00;99.90;;;;;;5034576;28;20235;-62
2022/08/24 09:40:51;;;;;;;9.23;6.75;;;28.20;99.90;;;;;;5020377;28;20269;-62
2022/08/24 09:43:45;;;;;;;10.90;6.05;;;28.20;99.90;;;;;;5019161;28;20635;-61
2022/08/24 09:46:41;;;;;;;11.05;6.57;;;28.20;99.90;;;;;;5025550;28;20640;-65
2022/08/24 09:50:00;;;;;;;11.70;6.50;;;27.90;99.90;;;;;;5023639;28;20181;-62
2022/08/24 09:52:41;;;;;;;10.10;5.75;;;27.60;99.90;;;;;;5036606;28;20551;-62
2022/08/24 09:55:25;;;;;;;5.97;5.35;;;27.80;99.90;;;;;;5014707;28;20179;-63
2022/08/24 09:57:54;;;;;;;8.52;5.28;;;28.40;99.90;;;;;;5024100;28;20186;-63
2022/08/24 10:00:38;;;;;;;8.23;5.65;;;28.70;99.90;;;;;;5029934;28;20206;-62
2022/08/24 10:03:26;;;;;;;6.13;5.43;;;28.80;99.90;;;;;;5015009;28;20178;-62
2022/08/24 10:06:05;;;;;;;7.57;4.53;;;29.00;99.90;;;;;;5023753;28;20236;-63
2022/08/24 10:08:43;;;;;;;4.35;3.95;;;29.10;99.90;;;;;;5030766;28;20194;-62
2022/08/24 10:11:41;;;;;;;3.70;3.42;;;28.90;99.90;;;;;;5034214;28;20205;-61
2022/08/24 10:14:48;;;;;;;6.30;4.47;;;28.50;99.90;;;;;;5017480;28;20248;-60
2022/08/24 10:17:24;;;;;;;5.45;2.97;;;28.60;99.90;;;;;;5032490;28;20193;-60
2022/08/24 10:20:22;;;;;;;5.13;3.22;;;28.50;99.90;;;;;;5029092;28;20181;-60
2022/08/24 10:23:18;;;;;;;3.28;2.97;;;28.50;99.90;;;;;;5029163;28;20191;-61
2022/08/24 10:26:07;;;;;;;3.55;3.25;;;28.50;99.90;;;;;;5028432;28;20174;-63
2022/08/24 10:29:09;;;;;;;4.57;3.33;;;28.70;99.90;;;;;;5021311;28;20190;-61
2022/08/24 10:31:46;;;;;;;3.58;3.28;;;29.00;99.90;;;;;;5025938;28;20186;-61
2022/08/24 10:34:18;;;;;;;3.88;2.50;;;28.70;99.90;;;;;;5026249;28;20594;-60
2022/08/24 10:36:43;;;;;;;2.60;2.40;;;28.60;99.90;;;;;;5020327;28;20663;-60
2022/08/24 10:39:41;;;;;;;7.65;3.22;;;28.90;99.90;;;;;;5028807;28;20236;-60
2022/08/24 10:45:34;;;;;;;2.42;2.28;;;29.10;99.90;;;;;;5029547;28;20197;-62
2022/08/24 10:48:31;;;;;;;2.28;2.17;;;29.50;99.90;;;;;;5020120;28;20209;-61
2022/08/24 10:51:27;;;;;;;3.00;2.70;;;29.60;99.90;;;;;;5022955;28;20241;-62
2022/08/24 10:53:55;;;;;;;6.88;2.60;;;29.60;99.90;;;;;;5020924;28;20182;-61
2022/08/24 10:56:35;;;;;;;2.63;2.42;;;29.70;99.90;;;;;;5028417;28;20186;-61
2022/08/24 10:59:12;;;;;;;3.45;2.50;;;29.50;99.90;;;;;;5022418;28;20510;-62
2022/08/24 11:01:38;;;;;;;4.03;1.90;;;29.40;99.90;;;;;;5025647;28;20206;-61
2022/08/24 11:04:10;;;;;;;1.80;1.70;;;29.30;99.90;;;;;;5027010;28;20190;-61
2022/08/24 11:07:01;;;;;;;2.08;1.85;;;29.20;99.90;;;;;;5014240;28;20194;-61
2022/08/24 11:09:55;;;;;;;2.80;2.20;;;29.40;99.90;;;;;;5014076;28;20178;-62
2022/08/24 11:12:31;;;;;;;2.70;2.20;;;29.50;99.90;;;;;;5026504;28;20201;-61
2022/08/24 11:15:08;;;;;;;4.35;3.83;;;29.40;99.90;;;;;;5027276;28;20188;-62
2022/08/24 11:17:34;;;;;;;2.15;2.05;;;29.50;99.90;;;;;;5014309;28;20264;-61
2022/08/24 11:20:00;;;;;;;2.72;2.53;;;29.60;99.90;;;;;;5016998;28;20214;-61
2022/08/24 11:22:59;;;;;;;2.38;1.65;;;29.60;99.90;;;;;;5013584;28;20175;-62
2022/08/24 11:25:32;;;;;;;1.92;1.83;;;29.90;99.90;;;;;;5017112;28;20182;-62
2022/08/24 11:28:21;;;;;;;2.58;2.38;;;29.90;99.90;;;;;;5028089;28;20535;-61
2022/08/24 11:30:48;;;;;;;2.35;2.13;;;29.90;99.90;;;;;;5024890;28;20225;-61
2022/08/24 11:33:32;;;;;;;3.10;2.90;;;29.90;99.90;;;;;;5016004;28;20190;-62
2022/08/24 11:36:00;;;;;;;4.60;2.60;;;30.00;99.90;;;;;;5017038;28;20185;-62
2022/08/24 11:38:33;;;;;;;1.85;1.75;;;30.00;99.90;;;;;;5019323;28;20190;-62
2022/08/24 11:41:17;;;;;;;2.83;2.53;;;30.10;99.90;;;;;;5055489;28;20212;-61
2022/08/24 11:44:00;;;;;;;3.20;2.50;;;30.00;99.90;;;;;;5030175;28;20182;-61
2022/08/24 11:46:56;;;;;;;2.22;2.13;;;29.90;99.90;;;;;;5021599;28;20170;-62
2022/08/24 11:49:53;;;;;;;2.65;2.33;;;29.70;99.90;;;;;;5020848;28;20184;-62
2022/08/24 11:52:31;;;;;;;7.90;4.22;;;29.70;99.90;;;;;;5016408;28;20592;-61
2022/08/24 11:55:18;;;;;;;3.90;2.10;;;29.70;99.90;;;;;;5020783;28;20204;-60
2022/08/24 11:58:26;;;;;;;2.22;2.00;;;29.70;99.90;;;;;;5014992;28;20182;-62
2022/08/24 12:01:13;;;;;;;2.78;2.50;;;29.90;99.90;;;;;;5001578;28;20307;-62
2022/08/24 12:04:06;;;;;;;2.40;2.20;;;29.90;99.90;;;;;;5026654;28;20265;-62
2022/08/24 12:07:12;;;;;;;2.65;2.25;;;30.10;99.90;;;;;;5012670;28;22537;-61
2022/08/24 12:09:56;;;;;;;3.75;3.53;;;30.20;99.90;;;;;;5014842;28;20281;-60
2022/08/24 12:12:39;;;;;;;2.60;2.40;;;30.30;99.90;;;;;;5024240;28;20177;-61
2022/08/24 12:15:19;;;;;;;2.38;2.28;;;30.40;99.90;;;;;;5027275;28;20651;-61
2022/08/24 12:17:51;;;;;;;2.50;2.30;;;30.20;99.90;;;;;;5044975;28;20312;-61
2022/08/24 12:20:20;;;;;;;2.40;2.20;;;30.10;99.90;;;;;;5030885;28;20667;-61
2022/08/24 12:22:46;;;;;;;3.75;2.20;;;29.90;99.90;;;;;;5013669;28;20659;-61
2022/08/24 12:27:57;;;;;;;2.97;2.17;;;29.80;99.90;;;;;;5024933;28;20638;-61
2022/08/24 12:30:25;;;;;;;2.38;2.15;;;30.00;99.90;;;;;;5025196;28;20202;-61
2022/08/24 12:33:05;;;;;;;2.67;2.47;;;30.30;99.90;;;;;;5014370;28;20241;-61
2022/08/24 12:35:46;;;;;;;2.47;2.35;;;30.20;99.90;;;;;;5018287;28;20224;-61
2022/08/24 12:38:14;;;;;;;2.90;2.25;;;30.00;99.90;;;;;;5019586;28;20265;-61
2022/08/24 12:40:56;;;;;;;3.25;2.83;;;30.10;99.90;;;;;;5021070;28;20207;-61
2022/08/24 12:43:22;;;;;;;2.80;2.13;;;30.20;99.90;;;;;;5019172;28;20187;-62
2022/08/24 12:45:48;;;;;;;2.90;1.70;;;30.20;99.90;;;;;;5012900;28;20529;-61
2022/08/24 12:48:23;;;;;;;2.75;2.50;;;30.20;99.90;;;;;;5012959;28;20182;-61
2022/08/24 12:50:51;;;;;;;2.30;2.10;;;30.20;99.90;;;;;;5024761;28;20182;-61
2022/08/24 12:53:32;;;;;;;2.83;2.42;;;30.40;99.90;;;;;;5022861;28;20308;-61
2022/08/24 12:56:19;;;;;;;3.08;1.67;;;30.10;99.90;;;;;;5025888;28;20186;-61
2022/08/24 12:58:59;;;;;;;1.83;1.73;;;30.20;99.90;;;;;;5022839;28;20194;-61
2022/08/24 13:01:32;;;;;;;1.70;1.60;;;30.10;99.90;;;;;;5024041;28;20209;-61
2022/08/24 13:04:14;;;;;;;3.47;1.83;;;30.40;99.90;;;;;;5013692;28;20190;-61
2022/08/24 13:06:44;;;;;;;2.42;1.45;;;30.40;99.90;;;;;;5019740;28;20186;-61
2022/08/24 13:09:27;;;;;;;2.33;1.48;;;30.40;99.90;;;;;;5013978;28;20640;-61
2022/08/24 13:11:54;;;;;;;1.80;1.70;;;30.60;99.90;;;;;;5017007;28;20185;-61
2022/08/24 13:14:26;;;;;;;1.58;1.48;;;30.60;99.90;;;;;;5025963;28;20182;-61
2022/08/24 13:16:57;;;;;;;1.80;1.50;;;30.40;99.90;;;;;;5013828;28;20737;-61
2022/08/24 13:19:27;;;;;;;4.07;1.63;;;30.40;99.90;;;;;;5012591;28;20395;-61
2022/08/24 13:22:12;;;;;;;1.90;1.70;;;30.50;99.90;;;;;;5013513;28;20202;-61